sensor_id;sensor_type;location;lat;lon;timestamp;pressure;altitude;pressure_sealevel;temperature;humidity
84528;BME280;74768;51.152;6.196;2024-01-30T00:00:35;102057.03;;;4.49;99.44
84528;BME280;74768;51.152;6.196;2024-01-30T00:03:00;102060.56;;;4.53;99.62
84528;BME280;74768;51.152;6.196;2024-01-30T00:05:25;102061.41;;;4.53;99.58
84528;BME280;74768;51.152;6.196;2024-01-30T00:07:50;102057.97;;;4.62;99.79
84528;BME280;74768;51.152;6.196;2024-01-30T00:10:16;102058.00;;;4.66;99.62
84528;BME280;74768;51.152;6.196;2024-01-30T00:12:41;102056.28;;;4.72;100.00
84528;BME280;74768;51.152;6.196;2024-01-30T00:15:06;102050.16;;;4.68;100.00
84528;BME280;74768;51.152;6.196;2024-01-30T00:17:35;102042.31;;;4.68;99.49
84528;BME280;74768;51.152;6.196;2024-01-30T00:20:00;102034.47;;;4.66;99.79
84528;BME280;74768;51.152;6.196;2024-01-30T00:22:26;102032.72;;;4.70;100.00
84528;BME280;74768;51.152;6.196;2024-01-30T00:24:51;102028.38;;;4.69;99.51
84528;BME280;74768;51.152;6.196;2024-01-30T00:27:16;102031.88;;;4.66;100.00
84528;BME280;74768;51.152;6.196;2024-01-30T00:29:42;102033.56;;;4.63;100.00
84528;BME280;74768;51.152;6.196;2024-01-30T00:32:07;102028.34;;;4.61;99.69
84528;BME280;74768;51.152;6.196;2024-01-30T00:34:32;102034.44;;;4.60;99.67
84528;BME280;74768;51.152;6.196;2024-01-30T00:36:57;102033.59;;;4.64;99.87
84528;BME280;74768;51.152;6.196;2024-01-30T00:39:23;102029.22;;;4.62;99.51
84528;BME280;74768;51.152;6.196;2024-01-30T00:41:48;102034.44;;;4.60;99.71
84528;BME280;74768;51.152;6.196;2024-01-30T00:44:13;102028.34;;;4.60;99.47
84528;BME280;74768;51.152;6.196;2024-01-30T00:46:39;102031.81;;;4.56;99.57
84528;BME280;74768;51.152;6.196;2024-01-30T00:49:04;102043.13;;;4.52;99.19
84528;BME280;74768;51.152;6.196;2024-01-30T00:51:29;102039.63;;;4.50;99.64
84528;BME280;74768;51.152;6.196;2024-01-30T00:53:55;102036.09;;;4.46;99.81
84528;BME280;74768;51.152;6.196;2024-01-30T00:56:20;102035.22;;;4.46;99.95
84528;BME280;74768;51.152;6.196;2024-01-30T00:58:45;102034.38;;;4.44;99.87
84528;BME280;74768;51.152;6.196;2024-01-30T01:01:11;102034.38;;;4.45;99.54
84528;BME280;74768;51.152;6.196;2024-01-30T01:03:36;102035.22;;;4.46;99.58
84528;BME280;74768;51.152;6.196;2024-01-30T01:06:01;102040.47;;;4.49;100.00
84528;BME280;74768;51.152;6.196;2024-01-30T01:08:27;102041.34;;;4.49;99.96
84528;BME280;74768;51.152;6.196;2024-01-30T01:10:52;102035.28;;;4.55;99.63
84528;BME280;74768;51.152;6.196;2024-01-30T01:13:17;102031.81;;;4.62;100.00
84528;BME280;74768;51.152;6.196;2024-01-30T01:15:42;102032.72;;;4.70;100.00
84528;BME280;74768;51.152;6.196;2024-01-30T01:18:08;102028.38;;;4.70;100.00
84528;BME280;74768;51.152;6.196;2024-01-30T01:20:33;102033.59;;;4.70;100.00
84528;BME280;74768;51.152;6.196;2024-01-30T01:22:58;102034.47;;;4.71;100.00
84528;BME280;74768;51.152;6.196;2024-01-30T01:25:24;102030.19;;;4.87;100.00
84528;BME280;74768;51.152;6.196;2024-01-30T01:27:49;102031.94;;;4.89;99.71
84528;BME280;74768;51.152;6.196;2024-01-30T01:30:17;102033.72;;;4.96;99.59
84528;BME280;74768;51.152;6.196;2024-01-30T01:32:50;102030.19;;;4.97;99.89
84528;BME280;74768;51.152;6.196;2024-01-30T01:35:23;102030.22;;;4.99;99.48
84528;BME280;74768;51.152;6.196;2024-01-30T01:37:52;102027.59;;;4.97;99.17
84528;BME280;74768;51.152;6.196;2024-01-30T01:40:23;102029.38;;;5.03;99.45
84528;BME280;74768;51.152;6.196;2024-01-30T01:42:50;102031.09;;;5.05;99.00
84528;BME280;74768;51.152;6.196;2024-01-30T01:45:16;102026.75;;;5.07;98.97
84528;BME280;74768;51.152;6.196;2024-01-30T01:47:42;102024.13;;;5.04;98.04
84528;BME280;74768;51.152;6.196;2024-01-30T01:50:07;102016.28;;;5.01;98.19
84528;BME280;74768;51.152;6.196;2024-01-30T01:52:33;102018.00;;;4.93;98.47
84528;BME280;74768;51.152;6.196;2024-01-30T01:54:59;102026.69;;;4.82;98.47
84528;BME280;74768;51.152;6.196;2024-01-30T01:57:24;102018.81;;;4.83;98.88
84528;BME280;74768;51.152;6.196;2024-01-30T01:59:49;102021.44;;;4.77;98.50
84528;BME280;74768;51.152;6.196;2024-01-30T02:02:17;102024.00;;;4.68;98.78
84528;BME280;74768;51.152;6.196;2024-01-30T02:04:45;102018.75;;;4.63;99.29
84528;BME280;74768;51.152;6.196;2024-01-30T02:07:10;102017.91;;;4.70;99.52
84528;BME280;74768;51.152;6.196;2024-01-30T02:09:36;102005.72;;;4.77;99.48
84528;BME280;74768;51.152;6.196;2024-01-30T02:12:01;102009.25;;;4.91;99.73
84528;BME280;74768;51.152;6.196;2024-01-30T02:14:26;102005.81;;;5.07;99.52
84528;BME280;74768;51.152;6.196;2024-01-30T02:16:52;101997.97;;;5.07;98.96
84528;BME280;74768;51.152;6.196;2024-01-30T02:19:17;101995.34;;;5.01;99.43
84528;BME280;74768;51.152;6.196;2024-01-30T02:21:43;101995.31;;;4.98;98.84
84528;BME280;74768;51.152;6.196;2024-01-30T02:24:09;101989.22;;;4.93;98.60
84528;BME280;74768;51.152;6.196;2024-01-30T02:26:35;101994.47;;;4.96;98.84
84528;BME280;74768;51.152;6.196;2024-01-30T02:29:00;101997.09;;;5.04;99.05
84528;BME280;74768;51.152;6.196;2024-01-30T02:31:26;101985.78;;;5.22;99.22
84528;BME280;74768;51.152;6.196;2024-01-30T02:33:51;101996.25;;;5.22;98.74
84528;BME280;74768;51.152;6.196;2024-01-30T02:36:16;101986.66;;;5.16;98.69
84528;BME280;74768;51.152;6.196;2024-01-30T02:38:42;101987.53;;;5.17;98.30
84528;BME280;74768;51.152;6.196;2024-01-30T02:41:07;101988.38;;;5.14;98.40
84528;BME280;74768;51.152;6.196;2024-01-30T02:43:32;101994.47;;;5.13;98.13
84528;BME280;74768;51.152;6.196;2024-01-30T02:45:57;101984.03;;;5.04;98.36
84528;BME280;74768;51.152;6.196;2024-01-30T02:48:24;101985.75;;;4.96;98.58
84528;BME280;74768;51.152;6.196;2024-01-30T02:50:50;101981.41;;;4.96;98.76
84528;BME280;74768;51.152;6.196;2024-01-30T02:53:15;101983.13;;;4.88;97.96
84528;BME280;74768;51.152;6.196;2024-01-30T02:55:40;101980.47;;;4.81;98.07
84528;BME280;74768;51.152;6.196;2024-01-30T02:58:06;101979.59;;;4.80;98.86
84528;BME280;74768;51.152;6.196;2024-01-30T03:00:31;101972.59;;;4.78;98.14
84528;BME280;74768;51.152;6.196;2024-01-30T03:02:57;101972.59;;;4.76;98.21
84528;BME280;74768;51.152;6.196;2024-01-30T03:05:22;101968.25;;;4.80;98.88
84528;BME280;74768;51.152;6.196;2024-01-30T03:07:47;101974.34;;;4.74;99.13
84528;BME280;74768;51.152;6.196;2024-01-30T03:10:13;101982.16;;;4.63;98.52
84528;BME280;74768;51.152;6.196;2024-01-30T03:12:38;101984.75;;;4.51;98.88
84528;BME280;74768;51.152;6.196;2024-01-30T03:15:03;101989.00;;;4.39;98.37
84528;BME280;74768;51.152;6.196;2024-01-30T03:17:29;101982.03;;;4.33;98.44
84528;BME280;74768;51.152;6.196;2024-01-30T03:19:54;101984.63;;;4.33;98.80
84528;BME280;74768;51.152;6.196;2024-01-30T03:22:19;101984.66;;;4.39;99.54
84528;BME280;74768;51.152;6.196;2024-01-30T03:24:45;101989.06;;;4.43;99.80
84528;BME280;74768;51.152;6.196;2024-01-30T03:27:11;101977.75;;;4.55;99.97
84528;BME280;74768;51.152;6.196;2024-01-30T03:29:36;101974.34;;;4.66;99.77
84528;BME280;74768;51.152;6.196;2024-01-30T03:32:02;101976.97;;;4.73;99.52
84528;BME280;74768;51.152;6.196;2024-01-30T03:34:29;101972.59;;;4.73;99.22
84528;BME280;74768;51.152;6.196;2024-01-30T03:36:54;101974.31;;;4.69;98.82
84528;BME280;74768;51.152;6.196;2024-01-30T03:39:19;101971.69;;;4.60;99.23
84528;BME280;74768;51.152;6.196;2024-01-30T03:41:44;101965.56;;;4.54;99.02
84528;BME280;74768;51.152;6.196;2024-01-30T03:44:10;101960.34;;;4.52;98.99
84528;BME280;74768;51.152;6.196;2024-01-30T03:46:35;101955.16;;;4.69;99.43
84528;BME280;74768;51.152;6.196;2024-01-30T03:49:01;101956.06;;;4.79;99.11
84528;BME280;74768;51.152;6.196;2024-01-30T03:51:26;101956.09;;;4.94;99.17
84528;BME280;74768;51.152;6.196;2024-01-30T03:53:51;101960.44;;;4.89;98.74
84528;BME280;74768;51.152;6.196;2024-01-30T03:56:17;101960.44;;;4.87;98.46
84528;BME280;74768;51.152;6.196;2024-01-30T03:58:42;101950.00;;;5.08;98.34
84528;BME280;74768;51.152;6.196;2024-01-30T04:01:07;101950.00;;;5.12;98.40
84528;BME280;74768;51.152;6.196;2024-01-30T04:03:33;101953.47;;;5.12;98.35
84528;BME280;74768;51.152;6.196;2024-01-30T04:05:58;101950.88;;;5.15;98.06
84528;BME280;74768;51.152;6.196;2024-01-30T04:08:23;101949.13;;;5.08;97.23
84528;BME280;74768;51.152;6.196;2024-01-30T04:10:49;101949.09;;;4.99;97.44
84528;BME280;74768;51.152;6.196;2024-01-30T04:13:14;101949.13;;;4.94;97.95
84528;BME280;74768;51.152;6.196;2024-01-30T04:15:39;101951.72;;;4.85;97.80
84528;BME280;74768;51.152;6.196;2024-01-30T04:18:05;101943.84;;;4.79;97.57
84528;BME280;74768;51.152;6.196;2024-01-30T04:20:30;101941.25;;;4.85;97.92
84528;BME280;74768;51.152;6.196;2024-01-30T04:22:55;101947.34;;;4.81;98.00
84528;BME280;74768;51.152;6.196;2024-01-30T04:25:21;101949.06;;;4.78;98.25
84528;BME280;74768;51.152;6.196;2024-01-30T04:27:46;101950.81;;;4.73;98.36
84528;BME280;74768;51.152;6.196;2024-01-30T04:30:12;101956.06;;;4.74;98.87
84528;BME280;74768;51.152;6.196;2024-01-30T04:32:37;101952.56;;;4.72;98.96
84528;BME280;74768;51.152;6.196;2024-01-30T04:35:03;101950.78;;;4.65;98.75
84528;BME280;74768;51.152;6.196;2024-01-30T04:37:28;101943.81;;;4.64;98.24
84528;BME280;74768;51.152;6.196;2024-01-30T04:39:53;101946.44;;;4.65;99.07
84528;BME280;74768;51.152;6.196;2024-01-30T04:42:19;101947.28;;;4.58;99.35
84528;BME280;74768;51.152;6.196;2024-01-30T04:44:44;101949.84;;;4.48;99.12
84528;BME280;74768;51.152;6.196;2024-01-30T04:47:10;101948.97;;;4.41;99.14
84528;BME280;74768;51.152;6.196;2024-01-30T04:49:38;101938.47;;;4.34;99.33
84528;BME280;74768;51.152;6.196;2024-01-30T04:52:04;101949.78;;;4.31;99.09
84528;BME280;74768;51.152;6.196;2024-01-30T04:54:29;101946.28;;;4.27;99.10
84528;BME280;74768;51.152;6.196;2024-01-30T04:56:55;101944.53;;;4.25;99.08
84528;BME280;74768;51.152;6.196;2024-01-30T04:59:20;101946.31;;;4.29;99.99
84528;BME280;74768;51.152;6.196;2024-01-30T05:01:45;101941.09;;;4.29;99.80
84528;BME280;74768;51.152;6.196;2024-01-30T05:04:11;101943.69;;;4.27;99.92
84528;BME280;74768;51.152;6.196;2024-01-30T05:06:36;101952.41;;;4.29;100.00
84528;BME280;74768;51.152;6.196;2024-01-30T05:09:02;101942.78;;;4.25;99.53
84528;BME280;74768;51.152;6.196;2024-01-30T05:11:29;101947.13;;;4.19;99.29
84528;BME280;74768;51.152;6.196;2024-01-30T05:13:55;101938.41;;;4.20;100.00
84528;BME280;74768;51.152;6.196;2024-01-30T05:16:20;101937.56;;;4.21;99.86
84528;BME280;74768;51.152;6.196;2024-01-30T05:18:45;101938.47;;;4.30;99.73
84528;BME280;74768;51.152;6.196;2024-01-30T05:21:10;101944.53;;;4.26;100.00
84528;BME280;74768;51.152;6.196;2024-01-30T05:23:36;101930.59;;;4.26;99.79
84528;BME280;74768;51.152;6.196;2024-01-30T05:26:01;101928.00;;;4.29;100.00
84528;BME280;74768;51.152;6.196;2024-01-30T05:28:28;101930.63;;;4.32;100.00
84528;BME280;74768;51.152;6.196;2024-01-30T05:30:54;101921.03;;;4.32;100.00
84528;BME280;74768;51.152;6.196;2024-01-30T05:33:19;101923.66;;;4.34;100.00
84528;BME280;74768;51.152;6.196;2024-01-30T05:35:45;101921.06;;;4.39;100.00
84528;BME280;74768;51.152;6.196;2024-01-30T05:38:11;101921.97;;;4.45;100.00
84528;BME280;74768;51.152;6.196;2024-01-30T05:40:36;101912.41;;;4.50;100.00
84528;BME280;74768;51.152;6.196;2024-01-30T05:43:01;101910.69;;;4.52;100.00
84528;BME280;74768;51.152;6.196;2024-01-30T05:45:27;101903.69;;;4.56;100.00
84528;BME280;74768;51.152;6.196;2024-01-30T05:47:53;101917.66;;;4.59;100.00
84528;BME280;74768;51.152;6.196;2024-01-30T05:50:21;101913.31;;;4.63;100.00
84528;BME280;74768;51.152;6.196;2024-01-30T05:52:48;101908.94;;;4.65;100.00
84528;BME280;74768;51.152;6.196;2024-01-30T05:55:13;101919.41;;;4.65;100.00
84528;BME280;74768;51.152;6.196;2024-01-30T05:57:39;101912.44;;;4.64;100.00
84528;BME280;74768;51.152;6.196;2024-01-30T06:00:05;101909.81;;;4.61;100.00
84528;BME280;74768;51.152;6.196;2024-01-30T06:02:31;101904.59;;;4.64;100.00
84528;BME280;74768;51.152;6.196;2024-01-30T06:04:56;101904.63;;;4.84;100.00
84528;BME280;74768;51.152;6.196;2024-01-30T06:07:21;101904.66;;;5.00;100.00
84528;BME280;74768;51.152;6.196;2024-01-30T06:09:47;101905.50;;;5.07;100.00
84528;BME280;74768;51.152;6.196;2024-01-30T06:12:12;101902.03;;;5.08;100.00
84528;BME280;74768;51.152;6.196;2024-01-30T06:14:38;101904.63;;;5.13;100.00
84528;BME280;74768;51.152;6.196;2024-01-30T06:17:03;101905.53;;;5.10;100.00
84528;BME280;74768;51.152;6.196;2024-01-30T06:19:28;101915.09;;;5.05;100.00
84528;BME280;74768;51.152;6.196;2024-01-30T06:21:54;101912.50;;;5.00;100.00
84528;BME280;74768;51.152;6.196;2024-01-30T06:24:19;101909.88;;;5.00;100.00
84528;BME280;74768;51.152;6.196;2024-01-30T06:26:44;101917.72;;;4.99;100.00
84528;BME280;74768;51.152;6.196;2024-01-30T06:29:10;101921.22;;;4.99;100.00
84528;BME280;74768;51.152;6.196;2024-01-30T06:31:41;101915.97;;;5.05;100.00
84528;BME280;74768;51.152;6.196;2024-01-30T06:34:07;101912.47;;;5.13;100.00
84528;BME280;74768;51.152;6.196;2024-01-30T06:36:32;101915.13;;;5.09;100.00
84528;BME280;74768;51.152;6.196;2024-01-30T06:38:58;101903.75;;;5.12;100.00
84528;BME280;74768;51.152;6.196;2024-01-30T06:41:23;101911.66;;;5.18;100.00
84528;BME280;74768;51.152;6.196;2024-01-30T06:43:49;101916.00;;;5.25;99.89
84528;BME280;74768;51.152;6.196;2024-01-30T06:46:14;101909.91;;;5.32;100.00
84528;BME280;74768;51.152;6.196;2024-01-30T06:48:40;101907.22;;;5.58;100.00
84528;BME280;74768;51.152;6.196;2024-01-30T06:51:05;101911.56;;;5.64;99.42
84528;BME280;74768;51.152;6.196;2024-01-30T06:53:31;101909.84;;;5.60;99.36
84528;BME280;74768;51.152;6.196;2024-01-30T06:55:56;101904.63;;;5.49;99.07
84528;BME280;74768;51.152;6.196;2024-01-30T06:58:21;101912.47;;;5.41;98.80
84528;BME280;74768;51.152;6.196;2024-01-30T07:00:47;101909.88;;;5.40;99.42
84528;BME280;74768;51.152;6.196;2024-01-30T07:03:12;101911.63;;;5.45;99.36
84528;BME280;74768;51.152;6.196;2024-01-30T07:05:37;101909.88;;;5.47;99.78
84528;BME280;74768;51.152;6.196;2024-01-30T07:08:02;101915.97;;;5.49;99.33
84528;BME280;74768;51.152;6.196;2024-01-30T07:10:28;101914.22;;;5.52;99.78
84528;BME280;74768;51.152;6.196;2024-01-30T07:12:53;101915.94;;;5.56;99.85
84528;BME280;74768;51.152;6.196;2024-01-30T07:15:19;101921.22;;;5.53;99.35
84528;BME280;74768;51.152;6.196;2024-01-30T07:17:45;101918.59;;;5.59;100.00
84528;BME280;74768;51.152;6.196;2024-01-30T07:20:11;101932.56;;;5.61;100.00
84528;BME280;74768;51.152;6.196;2024-01-30T07:22:36;101927.28;;;5.64;99.86
84528;BME280;74768;51.152;6.196;2024-01-30T07:25:01;101947.38;;;5.68;100.00
84528;BME280;74768;51.152;6.196;2024-01-30T07:27:27;101940.38;;;5.73;100.00
84528;BME280;74768;51.152;6.196;2024-01-30T07:29:52;101942.97;;;5.79;100.00
84528;BME280;74768;51.152;6.196;2024-01-30T07:32:17;101942.13;;;5.89;100.00
84528;BME280;74768;51.152;6.196;2024-01-30T07:34:43;101948.22;;;6.06;100.00
84528;BME280;74768;51.152;6.196;2024-01-30T07:37:09;101941.19;;;6.17;100.00
84528;BME280;74768;51.152;6.196;2024-01-30T07:39:34;101945.53;;;6.24;99.70
84528;BME280;74768;51.152;6.196;2024-01-30T07:42:00;101950.72;;;6.35;99.46
84528;BME280;74768;51.152;6.196;2024-01-30T07:44:26;101951.53;;;6.43;98.95
84528;BME280;74768;51.152;6.196;2024-01-30T07:46:51;101954.16;;;6.48;98.67
84528;BME280;74768;51.152;6.196;2024-01-30T07:49:16;101955.88;;;6.53;98.50
84528;BME280;74768;51.152;6.196;2024-01-30T07:51:42;101966.38;;;6.52;98.38
84528;BME280;74768;51.152;6.196;2024-01-30T07:54:08;101971.63;;;6.50;98.53
84528;BME280;74768;51.152;6.196;2024-01-30T07:56:33;101969.84;;;6.60;98.34
84528;BME280;74768;51.152;6.196;2024-01-30T07:58:58;101969.75;;;6.72;98.30
84528;BME280;74768;51.152;6.196;2024-01-30T08:01:24;101970.63;;;6.79;98.25
84528;BME280;74768;51.152;6.196;2024-01-30T08:03:49;101977.59;;;6.81;98.65
84528;BME280;74768;51.152;6.196;2024-01-30T08:06:14;101978.41;;;6.94;97.99
84528;BME280;74768;51.152;6.196;2024-01-30T08:08:40;101976.69;;;6.93;97.78
84528;BME280;74768;51.152;6.196;2024-01-30T08:11:05;101979.25;;;6.99;97.38
84528;BME280;74768;51.152;6.196;2024-01-30T08:13:30;101981.91;;;6.93;97.84
84528;BME280;74768;51.152;6.196;2024-01-30T08:15:56;101992.44;;;6.88;97.98
84528;BME280;74768;51.152;6.196;2024-01-30T08:18:21;101996.84;;;6.82;97.68
84528;BME280;74768;51.152;6.196;2024-01-30T08:20:46;101999.50;;;6.77;98.19
84528;BME280;74768;51.152;6.196;2024-01-30T08:23:11;101997.75;;;6.75;97.67
84528;BME280;74768;51.152;6.196;2024-01-30T08:25:37;102009.13;;;6.77;98.33
84528;BME280;74768;51.152;6.196;2024-01-30T08:28:03;102016.13;;;6.75;97.94
84528;BME280;74768;51.152;6.196;2024-01-30T08:30:29;102010.75;;;6.97;98.28
84528;BME280;74768;51.152;6.196;2024-01-30T08:32:54;102007.06;;;7.24;98.41
84528;BME280;74768;51.152;6.196;2024-01-30T08:35:19;102007.03;;;7.32;98.21
84528;BME280;74768;51.152;6.196;2024-01-30T08:37:45;102006.16;;;7.31;98.08
84528;BME280;74768;51.152;6.196;2024-01-30T08:40:10;102012.31;;;7.30;98.14
84528;BME280;74768;51.152;6.196;2024-01-30T08:42:35;102012.22;;;7.41;98.43
84528;BME280;74768;51.152;6.196;2024-01-30T08:45:01;102018.28;;;7.51;98.35
84528;BME280;74768;51.152;6.196;2024-01-30T08:47:26;102020.03;;;7.49;98.07
84528;BME280;74768;51.152;6.196;2024-01-30T08:49:52;102021.72;;;7.57;98.19
84528;BME280;74768;51.152;6.196;2024-01-30T08:52:17;102019.84;;;7.73;98.07
84528;BME280;74768;51.152;6.196;2024-01-30T08:54:42;102015.34;;;7.86;97.87
84528;BME280;74768;51.152;6.196;2024-01-30T08:57:07;102013.44;;;8.03;97.00
84528;BME280;74768;51.152;6.196;2024-01-30T08:59:33;102022.00;;;8.23;96.11
84528;BME280;74768;51.152;6.196;2024-01-30T09:01:58;102020.13;;;8.37;95.96
84528;BME280;74768;51.152;6.196;2024-01-30T09:04:24;102013.81;;;8.53;94.69
84528;BME280;74768;51.152;6.196;2024-01-30T09:06:49;102010.97;;;8.69;93.73
84528;BME280;74768;51.152;6.196;2024-01-30T09:09:15;102012.47;;;8.88;93.00
84528;BME280;74768;51.152;6.196;2024-01-30T09:11:40;102009.53;;;9.09;92.03
84528;BME280;74768;51.152;6.196;2024-01-30T09:14:06;101997.72;;;9.36;89.93
84528;BME280;74768;51.152;6.196;2024-01-30T09:16:31;102006.09;;;9.62;89.68
84528;BME280;74768;51.152;6.196;2024-01-30T09:18:57;102003.00;;;9.87;89.06
84528;BME280;74768;51.152;6.196;2024-01-30T09:21:22;102011.34;;;10.13;87.59
84528;BME280;74768;51.152;6.196;2024-01-30T09:23:48;102013.34;;;10.46;85.74
84528;BME280;74768;51.152;6.196;2024-01-30T09:26:13;102016.25;;;10.76;85.87
84528;BME280;74768;51.152;6.196;2024-01-30T09:28:38;102011.50;;;10.93;83.99
84528;BME280;74768;51.152;6.196;2024-01-30T09:31:04;102011.19;;;11.07;82.95
84528;BME280;74768;51.152;6.196;2024-01-30T09:33:29;102009.22;;;11.16;82.43
84528;BME280;74768;51.152;6.196;2024-01-30T09:35:54;102011.06;;;11.11;83.30
84528;BME280;74768;51.152;6.196;2024-01-30T09:38:20;102013.94;;;11.02;82.65
84528;BME280;74768;51.152;6.196;2024-01-30T09:40:53;102016.66;;;10.99;82.30
84528;BME280;74768;51.152;6.196;2024-01-30T09:43:22;102013.31;;;10.91;82.73
84528;BME280;74768;51.152;6.196;2024-01-30T09:45:48;102018.94;;;10.74;81.47
84528;BME280;74768;51.152;6.196;2024-01-30T09:48:15;102013.66;;;10.74;84.04
84528;BME280;74768;51.152;6.196;2024-01-30T09:50:40;102018.91;;;10.76;83.38
84528;BME280;74768;51.152;6.196;2024-01-30T09:53:08;102017.09;;;10.78;83.00
84528;BME280;74768;51.152;6.196;2024-01-30T09:55:34;102015.34;;;10.78;82.83
84528;BME280;74768;51.152;6.196;2024-01-30T09:58:00;102021.38;;;10.83;83.20
84528;BME280;74768;51.152;6.196;2024-01-30T10:00:26;102021.34;;;10.86;83.23
84528;BME280;74768;51.152;6.196;2024-01-30T10:02:52;102016.69;;;10.96;81.24
84528;BME280;74768;51.152;6.196;2024-01-30T10:05:19;102023.69;;;10.99;82.04
84528;BME280;74768;51.152;6.196;2024-01-30T10:07:53;102019.22;;;11.02;82.67
84528;BME280;74768;51.152;6.196;2024-01-30T10:10:21;102017.53;;;10.98;82.29
84528;BME280;74768;51.152;6.196;2024-01-30T10:12:47;102013.81;;;11.08;81.28
84528;BME280;74768;51.152;6.196;2024-01-30T10:15:14;102010.13;;;11.15;81.46
84528;BME280;74768;51.152;6.196;2024-01-30T10:17:39;102016.31;;;11.14;82.03
84528;BME280;74768;51.152;6.196;2024-01-30T10:20:05;102021.56;;;11.16;81.83
84528;BME280;74768;51.152;6.196;2024-01-30T10:22:30;102020.34;;;11.30;81.55
84528;BME280;74768;51.152;6.196;2024-01-30T10:24:56;102023.00;;;11.30;81.35
84528;BME280;74768;51.152;6.196;2024-01-30T10:27:28;102025.50;;;11.35;82.05
84528;BME280;74768;51.152;6.196;2024-01-30T10:29:55;102028.88;;;11.42;80.64
84528;BME280;74768;51.152;6.196;2024-01-30T10:32:21;102025.50;;;11.35;81.64
84528;BME280;74768;51.152;6.196;2024-01-30T10:34:46;102024.59;;;11.38;81.21
84528;BME280;74768;51.152;6.196;2024-01-30T10:37:12;102019.84;;;11.50;81.55
84528;BME280;74768;51.152;6.196;2024-01-30T10:39:40;102020.72;;;11.51;81.65
84528;BME280;74768;51.152;6.196;2024-01-30T10:42:13;102023.38;;;11.51;81.64
84528;BME280;74768;51.152;6.196;2024-01-30T10:45:07;102030.31;;;11.55;81.25
84528;BME280;74768;51.152;6.196;2024-01-30T10:47:49;102033.13;;;11.49;81.95
84528;BME280;74768;51.152;6.196;2024-01-30T10:50:15;102025.44;;;11.38;81.56
84528;BME280;74768;51.152;6.196;2024-01-30T10:52:42;102030.22;;;11.22;82.71
84528;BME280;74768;51.152;6.196;2024-01-30T10:55:09;102033.81;;;11.18;83.01
84528;BME280;74768;51.152;6.196;2024-01-30T10:57:35;102034.50;;;11.28;82.16
84528;BME280;74768;51.152;6.196;2024-01-30T11:00:04;102041.50;;;11.29;83.13
84528;BME280;74768;51.152;6.196;2024-01-30T11:02:31;102043.44;;;11.22;83.09
84528;BME280;74768;51.152;6.196;2024-01-30T11:04:58;102040.94;;;11.16;83.32
84528;BME280;74768;51.152;6.196;2024-01-30T11:07:28;102047.25;;;11.09;84.39
84528;BME280;74768;51.152;6.196;2024-01-30T11:12:26;102036.19;;;11.30;82.72
84528;BME280;74768;51.152;6.196;2024-01-30T11:17:51;102039.63;;;11.34;82.96
84528;BME280;74768;51.152;6.196;2024-01-30T11:20:20;102041.22;;;11.41;82.76
84528;BME280;74768;51.152;6.196;2024-01-30T11:22:46;102034.31;;;11.36;82.83
84528;BME280;74768;51.152;6.196;2024-01-30T11:25:17;102034.13;;;11.43;82.69
84528;BME280;74768;51.152;6.196;2024-01-30T11:27:44;102032.47;;;11.39;83.04
84528;BME280;74768;51.152;6.196;2024-01-30T11:30:10;102024.38;;;11.47;83.22
84528;BME280;74768;51.152;6.196;2024-01-30T11:32:35;102033.13;;;11.49;83.09
84528;BME280;74768;51.152;6.196;2024-01-30T11:35:04;102031.31;;;11.51;83.42
84528;BME280;74768;51.152;6.196;2024-01-30T11:37:31;102034.97;;;11.45;82.84
84528;BME280;74768;51.152;6.196;2024-01-30T11:39:56;102024.28;;;11.50;82.85
84528;BME280;74768;51.152;6.196;2024-01-30T11:42:23;102024.28;;;11.50;83.02
84528;BME280;74768;51.152;6.196;2024-01-30T11:44:50;102027.91;;;11.46;83.67
84528;BME280;74768;51.152;6.196;2024-01-30T11:47:16;102031.47;;;11.45;83.52
84528;BME280;74768;51.152;6.196;2024-01-30T11:49:42;102031.47;;;11.45;83.72
84528;BME280;74768;51.152;6.196;2024-01-30T11:52:08;102035.75;;;11.49;83.46
84528;BME280;74768;51.152;6.196;2024-01-30T11:54:34;102022.63;;;11.46;84.17
84528;BME280;74768;51.152;6.196;2024-01-30T11:56:59;102020.72;;;11.51;83.08
84528;BME280;74768;51.152;6.196;2024-01-30T11:59:24;102018.09;;;11.51;83.17
84528;BME280;74768;51.152;6.196;2024-01-30T12:01:51;102019.00;;;11.50;83.72
84528;BME280;74768;51.152;6.196;2024-01-30T12:04:17;102019.09;;;11.47;84.43
84528;BME280;74768;51.152;6.196;2024-01-30T12:06:42;102019.72;;;11.56;83.01
84528;BME280;74768;51.152;6.196;2024-01-30T12:09:09;102006.41;;;11.61;83.16
84528;BME280;74768;51.152;6.196;2024-01-30T12:11:45;102015.25;;;11.58;83.25
84528;BME280;74768;51.152;6.196;2024-01-30T12:14:11;102016.09;;;11.60;83.51
84528;BME280;74768;51.152;6.196;2024-01-30T12:16:36;102012.59;;;11.60;83.79
84528;BME280;74768;51.152;6.196;2024-01-30T12:19:02;102012.63;;;11.58;83.25
84528;BME280;74768;51.152;6.196;2024-01-30T12:21:29;102016.91;;;11.62;83.75
84528;BME280;74768;51.152;6.196;2024-01-30T12:23:54;102016.78;;;11.68;83.98
84528;BME280;74768;51.152;6.196;2024-01-30T12:26:19;102020.19;;;11.72;83.81
84528;BME280;74768;51.152;6.196;2024-01-30T12:28:49;102015.78;;;11.73;83.08
84528;BME280;74768;51.152;6.196;2024-01-30T12:31:17;102021.75;;;11.82;82.60
84528;BME280;74768;51.152;6.196;2024-01-30T12:33:42;102020.78;;;11.85;83.12
84528;BME280;74768;51.152;6.196;2024-01-30T12:36:07;102017.25;;;11.86;82.21
84528;BME280;74768;51.152;6.196;2024-01-30T12:38:33;102016.16;;;11.93;82.28
84528;BME280;74768;51.152;6.196;2024-01-30T12:40:58;102023.59;;;12.13;81.74
84528;BME280;74768;51.152;6.196;2024-01-30T12:43:24;102028.09;;;12.09;82.47
84528;BME280;74768;51.152;6.196;2024-01-30T12:45:50;102025.66;;;12.01;82.23
84528;BME280;74768;51.152;6.196;2024-01-30T12:48:17;102031.00;;;11.98;82.43
84528;BME280;74768;51.152;6.196;2024-01-30T12:50:42;102040.81;;;11.95;82.45
84528;BME280;74768;51.152;6.196;2024-01-30T12:53:07;102033.66;;;11.98;83.35